sensor_id;sensor_type;location;lat;lon;timestamp;P1;durP1;ratioP1;P2;durP2;ratioP2
75062;SDS011;63981;51.052;13.754;2022-12-18T00:01:48;41.20;;;19.23;;
75062;SDS011;63981;51.052;13.754;2022-12-18T00:04:18;36.08;;;18.63;;
75062;SDS011;63981;51.052;13.754;2022-12-18T00:06:50;37.72;;;17.92;;
75062;SDS011;63981;51.052;13.754;2022-12-18T00:09:17;32.00;;;14.95;;
75062;SDS011;63981;51.052;13.754;2022-12-18T00:11:43;41.65;;;19.00;;
75062;SDS011;63981;51.052;13.754;2022-12-18T00:16:39;45.85;;;17.80;;
75062;SDS011;63981;51.052;13.754;2022-12-18T00:19:05;38.60;;;17.75;;
75062;SDS011;63981;51.052;13.754;2022-12-18T00:21:33;33.28;;;15.15;;
75062;SDS011;63981;51.052;13.754;2022-12-18T00:24:00;32.55;;;14.48;;
75062;SDS011;63981;51.052;13.754;2022-12-18T00:26:27;38.53;;;16.65;;
75062;SDS011;63981;51.052;13.754;2022-12-18T00:29:02;32.40;;;16.10;;
75062;SDS011;63981;51.052;13.754;2022-12-18T00:31:34;37.90;;;17.77;;
75062;SDS011;63981;51.052;13.754;2022-12-18T00:34:00;34.42;;;15.48;;
75062;SDS011;63981;51.052;13.754;2022-12-18T00:36:32;32.90;;;14.60;;
75062;SDS011;63981;51.052;13.754;2022-12-18T00:39:21;32.38;;;16.02;;
75062;SDS011;63981;51.052;13.754;2022-12-18T00:41:47;36.00;;;17.42;;
75062;SDS011;63981;51.052;13.754;2022-12-18T00:44:35;38.55;;;16.85;;
75062;SDS011;63981;51.052;13.754;2022-12-18T00:47:01;34.63;;;14.25;;
75062;SDS011;63981;51.052;13.754;2022-12-18T00:49:28;41.28;;;16.90;;
75062;SDS011;63981;51.052;13.754;2022-12-18T00:51:58;33.97;;;14.38;;
75062;SDS011;63981;51.052;13.754;2022-12-18T00:54:25;32.92;;;14.98;;
75062;SDS011;63981;51.052;13.754;2022-12-18T00:56:51;35.22;;;15.40;;
75062;SDS011;63981;51.052;13.754;2022-12-18T01:01:46;34.70;;;14.02;;
75062;SDS011;63981;51.052;13.754;2022-12-18T01:04:13;36.55;;;15.23;;
75062;SDS011;63981;51.052;13.754;2022-12-18T01:06:42;34.42;;;15.27;;
75062;SDS011;63981;51.052;13.754;2022-12-18T01:09:09;35.60;;;14.77;;
75062;SDS011;63981;51.052;13.754;2022-12-18T01:12:02;29.55;;;13.57;;
75062;SDS011;63981;51.052;13.754;2022-12-18T01:14:29;33.17;;;14.60;;
75062;SDS011;63981;51.052;13.754;2022-12-18T01:16:56;32.03;;;14.70;;
75062;SDS011;63981;51.052;13.754;2022-12-18T01:19:24;23.15;;;11.60;;
75062;SDS011;63981;51.052;13.754;2022-12-18T01:21:50;19.83;;;9.43;;
75062;SDS011;63981;51.052;13.754;2022-12-18T01:24:16;18.00;;;8.93;;
75062;SDS011;63981;51.052;13.754;2022-12-18T01:26:46;18.45;;;8.70;;
75062;SDS011;63981;51.052;13.754;2022-12-18T01:29:14;25.30;;;12.15;;
75062;SDS011;63981;51.052;13.754;2022-12-18T01:31:40;31.17;;;13.77;;
75062;SDS011;63981;51.052;13.754;2022-12-18T01:34:06;25.50;;;12.25;;
75062;SDS011;63981;51.052;13.754;2022-12-18T01:36:35;20.73;;;10.55;;
75062;SDS011;63981;51.052;13.754;2022-12-18T01:39:04;23.85;;;10.75;;
75062;SDS011;63981;51.052;13.754;2022-12-18T01:41:32;28.15;;;12.82;;
75062;SDS011;63981;51.052;13.754;2022-12-18T01:47:55;19.48;;;9.23;;
75062;SDS011;63981;51.052;13.754;2022-12-18T01:50:16;26.58;;;11.30;;
75062;SDS011;63981;51.052;13.754;2022-12-18T01:52:45;23.67;;;10.82;;
75062;SDS011;63981;51.052;13.754;2022-12-18T01:55:15;25.42;;;11.45;;
75062;SDS011;63981;51.052;13.754;2022-12-18T01:57:44;25.35;;;10.88;;
75062;SDS011;63981;51.052;13.754;2022-12-18T02:00:13;25.77;;;11.43;;
75062;SDS011;63981;51.052;13.754;2022-12-18T02:02:41;25.45;;;12.63;;
75062;SDS011;63981;51.052;13.754;2022-12-18T02:05:10;25.98;;;12.25;;
75062;SDS011;63981;51.052;13.754;2022-12-18T02:07:48;19.83;;;9.65;;
75062;SDS011;63981;51.052;13.754;2022-12-18T02:18:31;21.15;;;8.63;;
75062;SDS011;63981;51.052;13.754;2022-12-18T02:21:05;13.45;;;7.05;;
75062;SDS011;63981;51.052;13.754;2022-12-18T02:27:14;20.63;;;7.45;;
75062;SDS011;63981;51.052;13.754;2022-12-18T02:29:46;24.42;;;9.95;;
75062;SDS011;63981;51.052;13.754;2022-12-18T02:32:20;25.10;;;11.13;;
75062;SDS011;63981;51.052;13.754;2022-12-18T02:37:22;18.13;;;8.52;;
75062;SDS011;63981;51.052;13.754;2022-12-18T02:39:51;20.92;;;8.95;;
75062;SDS011;63981;51.052;13.754;2022-12-18T02:42:21;10.65;;;4.45;;
75062;SDS011;63981;51.052;13.754;2022-12-18T02:44:49;18.55;;;8.55;;
75062;SDS011;63981;51.052;13.754;2022-12-18T02:47:21;18.52;;;9.35;;
75062;SDS011;63981;51.052;13.754;2022-12-18T02:57:57;25.40;;;10.93;;
75062;SDS011;63981;51.052;13.754;2022-12-18T03:00:41;21.30;;;9.68;;
75062;SDS011;63981;51.052;13.754;2022-12-18T03:03:24;17.98;;;8.25;;
75062;SDS011;63981;51.052;13.754;2022-12-18T03:06:06;19.10;;;8.90;;
75062;SDS011;63981;51.052;13.754;2022-12-18T03:08:39;18.25;;;7.45;;
75062;SDS011;63981;51.052;13.754;2022-12-18T03:11:10;17.73;;;7.72;;
75062;SDS011;63981;51.052;13.754;2022-12-18T03:13:50;18.75;;;7.55;;
75062;SDS011;63981;51.052;13.754;2022-12-18T03:16:23;22.05;;;10.50;;
75062;SDS011;63981;51.052;13.754;2022-12-18T03:21:33;11.10;;;4.82;;
75062;SDS011;63981;51.052;13.754;2022-12-18T03:24:04;15.10;;;7.15;;
75062;SDS011;63981;51.052;13.754;2022-12-18T03:26:34;14.13;;;7.10;;
75062;SDS011;63981;51.052;13.754;2022-12-18T03:29:06;15.05;;;8.55;;
75062;SDS011;63981;51.052;13.754;2022-12-18T03:31:40;12.30;;;6.13;;
75062;SDS011;63981;51.052;13.754;2022-12-18T03:34:14;18.17;;;8.45;;
75062;SDS011;63981;51.052;13.754;2022-12-18T03:36:46;14.75;;;7.60;;
75062;SDS011;63981;51.052;13.754;2022-12-18T03:39:14;22.73;;;9.43;;
75062;SDS011;63981;51.052;13.754;2022-12-18T03:41:52;18.88;;;7.75;;
75062;SDS011;63981;51.052;13.754;2022-12-18T03:44:50;15.70;;;7.82;;
75062;SDS011;63981;51.052;13.754;2022-12-18T03:50:35;16.38;;;8.07;;
75062;SDS011;63981;51.052;13.754;2022-12-18T03:55:54;18.88;;;7.88;;
75062;SDS011;63981;51.052;13.754;2022-12-18T03:58:23;16.08;;;7.47;;
75062;SDS011;63981;51.052;13.754;2022-12-18T04:01:11;13.57;;;6.47;;
75062;SDS011;63981;51.052;13.754;2022-12-18T04:03:42;13.82;;;6.25;;
75062;SDS011;63981;51.052;13.754;2022-12-18T04:06:11;16.08;;;6.90;;
75062;SDS011;63981;51.052;13.754;2022-12-18T04:08:40;14.25;;;7.07;;
75062;SDS011;63981;51.052;13.754;2022-12-18T04:11:10;12.70;;;6.53;;
75062;SDS011;63981;51.052;13.754;2022-12-18T04:13:37;12.15;;;6.35;;
75062;SDS011;63981;51.052;13.754;2022-12-18T04:16:13;13.18;;;5.75;;
75062;SDS011;63981;51.052;13.754;2022-12-18T04:18:42;14.35;;;5.80;;
75062;SDS011;63981;51.052;13.754;2022-12-18T04:21:09;12.73;;;6.03;;
75062;SDS011;63981;51.052;13.754;2022-12-18T04:23:37;11.90;;;5.35;;
75062;SDS011;63981;51.052;13.754;2022-12-18T04:26:03;12.05;;;5.47;;
75062;SDS011;63981;51.052;13.754;2022-12-18T04:28:44;12.82;;;6.68;;
75062;SDS011;63981;51.052;13.754;2022-12-18T04:31:12;13.10;;;6.22;;
75062;SDS011;63981;51.052;13.754;2022-12-18T04:33:39;11.73;;;4.82;;
75062;SDS011;63981;51.052;13.754;2022-12-18T04:36:06;12.00;;;4.30;;
75062;SDS011;63981;51.052;13.754;2022-12-18T04:38:33;11.65;;;5.47;;
75062;SDS011;63981;51.052;13.754;2022-12-18T04:41:05;18.75;;;6.55;;
75062;SDS011;63981;51.052;13.754;2022-12-18T04:43:31;14.73;;;6.65;;
75062;SDS011;63981;51.052;13.754;2022-12-18T04:46:05;11.10;;;6.13;;
75062;SDS011;63981;51.052;13.754;2022-12-18T04:48:32;14.98;;;6.90;;
75062;SDS011;63981;51.052;13.754;2022-12-18T04:50:59;14.23;;;6.05;;
75062;SDS011;63981;51.052;13.754;2022-12-18T04:53:25;12.27;;;5.93;;
75062;SDS011;63981;51.052;13.754;2022-12-18T04:56:01;13.00;;;6.00;;
75062;SDS011;63981;51.052;13.754;2022-12-18T04:58:38;12.82;;;6.32;;
75062;SDS011;63981;51.052;13.754;2022-12-18T05:01:06;13.88;;;5.82;;
75062;SDS011;63981;51.052;13.754;2022-12-18T05:03:33;13.88;;;6.07;;
75062;SDS011;63981;51.052;13.754;2022-12-18T05:06:01;9.40;;;4.63;;
75062;SDS011;63981;51.052;13.754;2022-12-18T05:08:27;11.10;;;5.20;;
75062;SDS011;63981;51.052;13.754;2022-12-18T05:11:04;9.27;;;5.43;;
75062;SDS011;63981;51.052;13.754;2022-12-18T05:13:32;9.68;;;4.97;;
75062;SDS011;63981;51.052;13.754;2022-12-18T05:15:59;12.70;;;5.18;;
75062;SDS011;63981;51.052;13.754;2022-12-18T05:18:26;14.35;;;6.53;;
75062;SDS011;63981;51.052;13.754;2022-12-18T05:20:53;11.25;;;6.88;;
75062;SDS011;63981;51.052;13.754;2022-12-18T05:23:23;11.77;;;4.63;;
75062;SDS011;63981;51.052;13.754;2022-12-18T05:26:08;12.57;;;5.70;;
75062;SDS011;63981;51.052;13.754;2022-12-18T05:28:35;14.38;;;5.95;;
75062;SDS011;63981;51.052;13.754;2022-12-18T05:31:08;9.10;;;4.68;;
75062;SDS011;63981;51.052;13.754;2022-12-18T05:33:35;9.27;;;4.13;;
75062;SDS011;63981;51.052;13.754;2022-12-18T05:36:03;12.85;;;5.60;;
75062;SDS011;63981;51.052;13.754;2022-12-18T05:38:31;13.02;;;5.72;;
75062;SDS011;63981;51.052;13.754;2022-12-18T05:40:59;10.75;;;6.00;;
75062;SDS011;63981;51.052;13.754;2022-12-18T05:43:27;14.65;;;6.47;;
75062;SDS011;63981;51.052;13.754;2022-12-18T05:45:54;12.15;;;5.72;;
75062;SDS011;63981;51.052;13.754;2022-12-18T05:48:21;12.90;;;6.25;;
75062;SDS011;63981;51.052;13.754;2022-12-18T05:50:48;12.27;;;5.70;;
75062;SDS011;63981;51.052;13.754;2022-12-18T05:53:16;10.02;;;5.32;;
75062;SDS011;63981;51.052;13.754;2022-12-18T05:58:11;10.52;;;4.05;;
75062;SDS011;63981;51.052;13.754;2022-12-18T08:01:39;17.88;;;6.70;;
75062;SDS011;63981;51.052;13.754;2022-12-18T08:04:06;13.07;;;5.78;;
75062;SDS011;63981;51.052;13.754;2022-12-18T08:06:32;14.48;;;6.78;;
75062;SDS011;63981;51.052;13.754;2022-12-18T08:08:58;13.18;;;5.97;;
75062;SDS011;63981;51.052;13.754;2022-12-18T08:11:51;17.15;;;6.80;;
75062;SDS011;63981;51.052;13.754;2022-12-18T08:14:17;9.18;;;4.78;;
75062;SDS011;63981;51.052;13.754;2022-12-18T08:16:43;12.57;;;5.90;;
75062;SDS011;63981;51.052;13.754;2022-12-18T08:19:10;16.90;;;6.93;;
75062;SDS011;63981;51.052;13.754;2022-12-18T08:21:36;15.10;;;7.82;;
75062;SDS011;63981;51.052;13.754;2022-12-18T08:24:03;15.50;;;7.75;;
75062;SDS011;63981;51.052;13.754;2022-12-18T08:26:50;13.57;;;6.97;;
75062;SDS011;63981;51.052;13.754;2022-12-18T08:29:17;18.92;;;8.07;;
75062;SDS011;63981;51.052;13.754;2022-12-18T08:31:43;16.75;;;7.75;;
75062;SDS011;63981;51.052;13.754;2022-12-18T08:34:10;13.82;;;7.30;;
75062;SDS011;63981;51.052;13.754;2022-12-18T08:36:37;12.98;;;6.93;;
75062;SDS011;63981;51.052;13.754;2022-12-18T08:39:04;20.00;;;8.02;;
75062;SDS011;63981;51.052;13.754;2022-12-18T08:41:30;20.27;;;9.25;;
75062;SDS011;63981;51.052;13.754;2022-12-18T08:43:57;16.95;;;7.50;;
75062;SDS011;63981;51.052;13.754;2022-12-18T08:46:42;18.02;;;8.50;;
75062;SDS011;63981;51.052;13.754;2022-12-18T08:49:10;17.15;;;8.00;;
75062;SDS011;63981;51.052;13.754;2022-12-18T08:51:40;21.27;;;8.90;;
75062;SDS011;63981;51.052;13.754;2022-12-18T08:54:06;19.48;;;9.13;;
75062;SDS011;63981;51.052;13.754;2022-12-18T08:56:33;21.60;;;9.55;;
75062;SDS011;63981;51.052;13.754;2022-12-18T08:59:00;18.42;;;9.27;;
75062;SDS011;63981;51.052;13.754;2022-12-18T09:01:26;19.75;;;9.77;;
75062;SDS011;63981;51.052;13.754;2022-12-18T09:03:52;18.35;;;9.50;;
75062;SDS011;63981;51.052;13.754;2022-12-18T09:06:20;21.33;;;9.52;;
75062;SDS011;63981;51.052;13.754;2022-12-18T09:08:48;20.70;;;9.02;;
75062;SDS011;63981;51.052;13.754;2022-12-18T09:11:18;22.33;;;9.13;;
75062;SDS011;63981;51.052;13.754;2022-12-18T09:13:47;20.65;;;9.30;;
75062;SDS011;63981;51.052;13.754;2022-12-18T09:16:13;21.35;;;10.45;;
75062;SDS011;63981;51.052;13.754;2022-12-18T09:18:39;20.50;;;10.02;;
75062;SDS011;63981;51.052;13.754;2022-12-18T09:21:16;22.10;;;10.18;;
75062;SDS011;63981;51.052;13.754;2022-12-18T09:23:48;24.40;;;11.02;;
75062;SDS011;63981;51.052;13.754;2022-12-18T09:26:15;23.10;;;10.48;;
75062;SDS011;63981;51.052;13.754;2022-12-18T09:28:42;19.75;;;8.93;;
75062;SDS011;63981;51.052;13.754;2022-12-18T09:31:08;16.98;;;8.82;;
75062;SDS011;63981;51.052;13.754;2022-12-18T09:33:37;26.38;;;12.38;;
75062;SDS011;63981;51.052;13.754;2022-12-18T09:36:05;25.27;;;11.82;;
75062;SDS011;63981;51.052;13.754;2022-12-18T09:38:33;25.23;;;12.73;;
75062;SDS011;63981;51.052;13.754;2022-12-18T09:43:50;17.35;;;8.98;;
75062;SDS011;63981;51.052;13.754;2022-12-18T09:46:43;27.58;;;11.57;;
75062;SDS011;63981;51.052;13.754;2022-12-18T09:49:13;30.33;;;12.60;;
75062;SDS011;63981;51.052;13.754;2022-12-18T09:54:19;22.88;;;11.07;;
75062;SDS011;63981;51.052;13.754;2022-12-18T09:56:52;25.38;;;11.50;;
75062;SDS011;63981;51.052;13.754;2022-12-18T09:59:21;25.35;;;11.88;;
75062;SDS011;63981;51.052;13.754;2022-12-18T10:01:51;21.08;;;11.18;;
75062;SDS011;63981;51.052;13.754;2022-12-18T10:04:18;20.95;;;11.10;;
75062;SDS011;63981;51.052;13.754;2022-12-18T10:06:47;26.38;;;12.02;;
75062;SDS011;63981;51.052;13.754;2022-12-18T10:09:31;23.88;;;11.02;;
75062;SDS011;63981;51.052;13.754;2022-12-18T10:17:55;13.23;;;7.45;;
75062;SDS011;63981;51.052;13.754;2022-12-18T10:23:17;20.58;;;9.50;;
75062;SDS011;63981;51.052;13.754;2022-12-18T10:26:00;21.95;;;10.02;;
75062;SDS011;63981;51.052;13.754;2022-12-18T10:28:36;22.50;;;9.82;;
75062;SDS011;63981;51.052;13.754;2022-12-18T10:31:05;21.27;;;9.45;;
75062;SDS011;63981;51.052;13.754;2022-12-18T10:33:33;13.55;;;7.07;;
75062;SDS011;63981;51.052;13.754;2022-12-18T10:36:00;21.70;;;10.15;;
75062;SDS011;63981;51.052;13.754;2022-12-18T10:38:27;23.50;;;11.77;;
75062;SDS011;63981;51.052;13.754;2022-12-18T10:40:59;22.48;;;10.70;;
75062;SDS011;63981;51.052;13.754;2022-12-18T10:43:45;23.23;;;10.63;;
75062;SDS011;63981;51.052;13.754;2022-12-18T10:51:06;24.27;;;11.50;;
75062;SDS011;63981;51.052;13.754;2022-12-18T10:53:35;24.42;;;10.48;;
75062;SDS011;63981;51.052;13.754;2022-12-18T10:56:03;25.40;;;11.55;;
75062;SDS011;63981;51.052;13.754;2022-12-18T10:58:32;19.88;;;9.18;;
75062;SDS011;63981;51.052;13.754;2022-12-18T11:03:44;22.55;;;11.38;;
75062;SDS011;63981;51.052;13.754;2022-12-18T11:06:21;20.88;;;9.85;;
75062;SDS011;63981;51.052;13.754;2022-12-18T11:09:01;21.88;;;11.27;;
75062;SDS011;63981;51.052;13.754;2022-12-18T11:11:32;24.33;;;12.38;;
75062;SDS011;63981;51.052;13.754;2022-12-18T11:14:03;23.30;;;11.88;;
75062;SDS011;63981;51.052;13.754;2022-12-18T11:16:43;23.88;;;12.18;;
75062;SDS011;63981;51.052;13.754;2022-12-18T11:19:19;18.77;;;9.93;;
75062;SDS011;63981;51.052;13.754;2022-12-18T11:21:50;23.77;;;11.40;;
75062;SDS011;63981;51.052;13.754;2022-12-18T11:24:20;23.15;;;12.25;;
75062;SDS011;63981;51.052;13.754;2022-12-18T11:26:50;23.73;;;12.70;;
75062;SDS011;63981;51.052;13.754;2022-12-18T11:29:18;21.63;;;11.55;;
75062;SDS011;63981;51.052;13.754;2022-12-18T11:31:49;20.85;;;11.27;;
75062;SDS011;63981;51.052;13.754;2022-12-18T11:34:26;26.42;;;12.52;;
75062;SDS011;63981;51.052;13.754;2022-12-18T11:36:56;26.15;;;13.73;;
75062;SDS011;63981;51.052;13.754;2022-12-18T11:39:34;20.60;;;11.65;;
75062;SDS011;63981;51.052;13.754;2022-12-18T11:45:18;26.75;;;13.57;;
75062;SDS011;63981;51.052;13.754;2022-12-18T11:50:26;21.60;;;10.68;;
75062;SDS011;63981;51.052;13.754;2022-12-18T11:52:59;23.42;;;12.48;;
75062;SDS011;63981;51.052;13.754;2022-12-18T11:55:30;24.85;;;12.98;;
75062;SDS011;63981;51.052;13.754;2022-12-18T12:00:26;24.10;;;11.88;;
75062;SDS011;63981;51.052;13.754;2022-12-18T12:03:06;18.88;;;9.60;;
75062;SDS011;63981;51.052;13.754;2022-12-18T12:11:48;24.98;;;10.80;;
75062;SDS011;63981;51.052;13.754;2022-12-18T12:19:53;21.45;;;10.18;;
75062;SDS011;63981;51.052;13.754;2022-12-18T12:28:19;22.75;;;11.40;;
75062;SDS011;63981;51.052;13.754;2022-12-18T12:39:29;16.70;;;7.18;;
75062;SDS011;63981;51.052;13.754;2022-12-18T12:41:57;28.45;;;10.75;;
75062;SDS011;63981;51.052;13.754;2022-12-18T12:44:45;23.63;;;11.27;;
75062;SDS011;63981;51.052;13.754;2022-12-18T12:47:18;22.77;;;8.68;;
75062;SDS011;63981;51.052;13.754;2022-12-18T12:49:49;21.50;;;10.05;;
75062;SDS011;63981;51.052;13.754;2022-12-18T12:52:20;20.70;;;9.02;;
75062;SDS011;63981;51.052;13.754;2022-12-18T12:54:51;20.83;;;9.20;;
75062;SDS011;63981;51.052;13.754;2022-12-18T12:57:20;22.63;;;9.20;;
75062;SDS011;63981;51.052;13.754;2022-12-18T13:00:05;24.38;;;10.38;;
75062;SDS011;63981;51.052;13.754;2022-12-18T13:08:12;18.23;;;8.88;;
75062;SDS011;63981;51.052;13.754;2022-12-18T13:10:54;19.17;;;8.65;;
75062;SDS011;63981;51.052;13.754;2022-12-18T13:13:49;15.23;;;7.32;;
75062;SDS011;63981;51.052;13.754;2022-12-18T13:16:24;16.92;;;8.98;;
75062;SDS011;63981;51.052;13.754;2022-12-18T13:18:58;21.98;;;9.50;;
75062;SDS011;63981;51.052;13.754;2022-12-18T13:21:26;23.92;;;9.98;;
75062;SDS011;63981;51.052;13.754;2022-12-18T13:23:55;20.42;;;8.15;;
75062;SDS011;63981;51.052;13.754;2022-12-18T13:28:53;22.65;;;9.32;;
75062;SDS011;63981;51.052;13.754;2022-12-18T13:34:27;25.08;;;11.45;;
75062;SDS011;63981;51.052;13.754;2022-12-18T13:36:57;23.75;;;10.38;;
75062;SDS011;63981;51.052;13.754;2022-12-18T13:40:49;24.15;;;10.07;;
75062;SDS011;63981;51.052;13.754;2022-12-18T13:48:35;15.38;;;7.65;;
75062;SDS011;63981;51.052;13.754;2022-12-18T13:51:05;16.33;;;8.15;;
75062;SDS011;63981;51.052;13.754;2022-12-18T13:56:42;18.65;;;8.65;;
75062;SDS011;63981;51.052;13.754;2022-12-18T13:59:20;19.35;;;8.63;;
75062;SDS011;63981;51.052;13.754;2022-12-18T14:04:26;18.98;;;8.23;;
75062;SDS011;63981;51.052;13.754;2022-12-18T14:07:01;17.75;;;8.50;;
75062;SDS011;63981;51.052;13.754;2022-12-18T14:09:43;15.38;;;7.10;;
75062;SDS011;63981;51.052;13.754;2022-12-18T14:15:20;22.05;;;8.75;;
75062;SDS011;63981;51.052;13.754;2022-12-18T14:18:01;18.45;;;8.73;;
75062;SDS011;63981;51.052;13.754;2022-12-18T14:20:35;10.40;;;6.05;;
75062;SDS011;63981;51.052;13.754;2022-12-18T14:23:02;18.17;;;7.15;;
75062;SDS011;63981;51.052;13.754;2022-12-18T14:25:29;19.55;;;7.47;;
75062;SDS011;63981;51.052;13.754;2022-12-18T14:30:42;13.35;;;6.95;;
75062;SDS011;63981;51.052;13.754;2022-12-18T14:33:11;12.32;;;6.05;;
75062;SDS011;63981;51.052;13.754;2022-12-18T14:36:04;11.02;;;6.60;;
75062;SDS011;63981;51.052;13.754;2022-12-18T14:38:35;13.50;;;6.13;;
75062;SDS011;63981;51.052;13.754;2022-12-18T14:41:13;13.90;;;6.60;;
75062;SDS011;63981;51.052;13.754;2022-12-18T14:43:46;21.50;;;5.88;;
75062;SDS011;63981;51.052;13.754;2022-12-18T14:46:49;19.00;;;7.03;;
75062;SDS011;63981;51.052;13.754;2022-12-18T14:49:18;14.55;;;6.88;;
75062;SDS011;63981;51.052;13.754;2022-12-18T14:51:49;12.75;;;6.22;;
75062;SDS011;63981;51.052;13.754;2022-12-18T14:54:19;11.38;;;5.93;;
75062;SDS011;63981;51.052;13.754;2022-12-18T14:56:47;18.95;;;8.23;;
75062;SDS011;63981;51.052;13.754;2022-12-18T14:59:34;15.27;;;6.88;;
75062;SDS011;63981;51.052;13.754;2022-12-18T15:07:40;21.00;;;9.63;;
75062;SDS011;63981;51.052;13.754;2022-12-18T15:10:19;15.70;;;8.60;;
75062;SDS011;63981;51.052;13.754;2022-12-18T15:12:50;16.60;;;7.03;;
75062;SDS011;63981;51.052;13.754;2022-12-18T15:18:10;16.88;;;8.45;;
75062;SDS011;63981;51.052;13.754;2022-12-18T15:23:18;15.93;;;8.35;;
75062;SDS011;63981;51.052;13.754;2022-12-18T15:25:46;14.45;;;6.50;;
75062;SDS011;63981;51.052;13.754;2022-12-18T15:31:22;16.73;;;8.07;;
75062;SDS011;63981;51.052;13.754;2022-12-18T15:36:23;14.80;;;6.55;;
75062;SDS011;63981;51.052;13.754;2022-12-18T15:38:50;18.23;;;7.57;;
75062;SDS011;63981;51.052;13.754;2022-12-18T15:41:18;16.92;;;6.85;;
75062;SDS011;63981;51.052;13.754;2022-12-18T15:43:46;15.77;;;7.78;;
75062;SDS011;63981;51.052;13.754;2022-12-18T15:48:42;13.65;;;7.53;;
75062;SDS011;63981;51.052;13.754;2022-12-18T15:51:14;12.65;;;6.32;;
75062;SDS011;63981;51.052;13.754;2022-12-18T15:53:46;20.70;;;8.13;;
75062;SDS011;63981;51.052;13.754;2022-12-18T15:56:14;15.35;;;6.30;;
75062;SDS011;63981;51.052;13.754;2022-12-18T15:59:00;19.13;;;8.25;;
75062;SDS011;63981;51.052;13.754;2022-12-18T16:01:29;16.55;;;7.40;;
75062;SDS011;63981;51.052;13.754;2022-12-18T16:04:15;14.85;;;6.50;;
75062;SDS011;63981;51.052;13.754;2022-12-18T16:09:09;15.15;;;6.07;;
75062;SDS011;63981;51.052;13.754;2022-12-18T16:11:36;21.73;;;8.30;;
75062;SDS011;63981;51.052;13.754;2022-12-18T16:14:20;13.85;;;7.60;;
75062;SDS011;63981;51.052;13.754;2022-12-18T16:16:54;20.52;;;9.32;;
75062;SDS011;63981;51.052;13.754;2022-12-18T16:19:23;17.42;;;7.65;;
75062;SDS011;63981;51.052;13.754;2022-12-18T16:21:50;17.95;;;8.88;;
75062;SDS011;63981;51.052;13.754;2022-12-18T16:26:48;18.50;;;8.27;;
75062;SDS011;63981;51.052;13.754;2022-12-18T16:29:14;19.25;;;8.32;;
75062;SDS011;63981;51.052;13.754;2022-12-18T16:31:41;14.35;;;6.22;;
75062;SDS011;63981;51.052;13.754;2022-12-18T16:34:20;21.55;;;9.55;;
75062;SDS011;63981;51.052;13.754;2022-12-18T16:36:49;17.42;;;7.78;;
75062;SDS011;63981;51.052;13.754;2022-12-18T16:39:16;19.08;;;7.75;;
75062;SDS011;63981;51.052;13.754;2022-12-18T16:42:04;16.85;;;9.02;;
75062;SDS011;63981;51.052;13.754;2022-12-18T16:44:34;19.10;;;8.50;;
75062;SDS011;63981;51.052;13.754;2022-12-18T16:47:01;9.77;;;5.22;;
75062;SDS011;63981;51.052;13.754;2022-12-18T16:49:27;13.82;;;5.30;;
75062;SDS011;63981;51.052;13.754;2022-12-18T16:51:54;27.38;;;9.00;;
75062;SDS011;63981;51.052;13.754;2022-12-18T16:54:21;22.80;;;9.75;;
75062;SDS011;63981;51.052;13.754;2022-12-18T16:56:47;19.67;;;9.20;;
75062;SDS011;63981;51.052;13.754;2022-12-18T16:59:16;16.05;;;7.63;;
75062;SDS011;63981;51.052;13.754;2022-12-18T17:01:43;19.55;;;7.82;;
75062;SDS011;63981;51.052;13.754;2022-12-18T17:04:09;20.00;;;8.15;;
75062;SDS011;63981;51.052;13.754;2022-12-18T17:06:38;18.95;;;8.35;;
75062;SDS011;63981;51.052;13.754;2022-12-18T17:09:07;18.58;;;7.13;;
75062;SDS011;63981;51.052;13.754;2022-12-18T17:11:36;27.23;;;10.95;;
75062;SDS011;63981;51.052;13.754;2022-12-18T17:14:06;20.27;;;7.82;;
75062;SDS011;63981;51.052;13.754;2022-12-18T17:16:39;21.00;;;10.05;;
75062;SDS011;63981;51.052;13.754;2022-12-18T17:19:05;15.00;;;7.20;;
75062;SDS011;63981;51.052;13.754;2022-12-18T17:21:31;23.42;;;11.88;;
75062;SDS011;63981;51.052;13.754;2022-12-18T17:23:58;18.88;;;7.53;;
75062;SDS011;63981;51.052;13.754;2022-12-18T17:26:26;13.05;;;7.10;;
75062;SDS011;63981;51.052;13.754;2022-12-18T17:28:59;18.70;;;8.60;;
75062;SDS011;63981;51.052;13.754;2022-12-18T17:33:55;11.95;;;6.97;;
75062;SDS011;63981;51.052;13.754;2022-12-18T17:36:22;18.55;;;7.93;;
75062;SDS011;63981;51.052;13.754;2022-12-18T17:38:52;14.73;;;7.55;;
75062;SDS011;63981;51.052;13.754;2022-12-18T17:41:20;19.77;;;8.65;;
75062;SDS011;63981;51.052;13.754;2022-12-18T17:43:54;11.10;;;6.60;;
75062;SDS011;63981;51.052;13.754;2022-12-18T17:46:28;12.13;;;6.03;;
75062;SDS011;63981;51.052;13.754;2022-12-18T17:48:56;13.55;;;7.30;;
75062;SDS011;63981;51.052;13.754;2022-12-18T17:51:23;18.92;;;9.55;;
75062;SDS011;63981;51.052;13.754;2022-12-18T17:53:50;22.45;;;8.52;;
75062;SDS011;63981;51.052;13.754;2022-12-18T17:56:18;19.77;;;7.63;;
75062;SDS011;63981;51.052;13.754;2022-12-18T17:58:45;17.77;;;7.38;;
75062;SDS011;63981;51.052;13.754;2022-12-18T18:01:13;19.85;;;7.47;;
75062;SDS011;63981;51.052;13.754;2022-12-18T18:03:43;15.88;;;7.50;;
75062;SDS011;63981;51.052;13.754;2022-12-18T18:06:10;18.77;;;9.25;;
75062;SDS011;63981;51.052;13.754;2022-12-18T18:08:36;11.85;;;5.50;;
75062;SDS011;63981;51.052;13.754;2022-12-18T18:11:06;17.15;;;8.13;;
75062;SDS011;63981;51.052;13.754;2022-12-18T18:13:54;16.02;;;6.45;;
75062;SDS011;63981;51.052;13.754;2022-12-18T18:16:35;15.38;;;5.88;;
75062;SDS011;63981;51.052;13.754;2022-12-18T18:19:04;16.08;;;8.73;;
75062;SDS011;63981;51.052;13.754;2022-12-18T18:21:53;22.80;;;11.48;;
75062;SDS011;63981;51.052;13.754;2022-12-18T18:24:21;15.10;;;7.22;;
75062;SDS011;63981;51.052;13.754;2022-12-18T18:26:48;16.50;;;7.63;;
75062;SDS011;63981;51.052;13.754;2022-12-18T18:29:18;22.58;;;8.43;;
75062;SDS011;63981;51.052;13.754;2022-12-18T18:31:46;15.52;;;7.70;;
75062;SDS011;63981;51.052;13.754;2022-12-18T18:34:17;20.23;;;8.18;;
75062;SDS011;63981;51.052;13.754;2022-12-18T18:36:48;19.60;;;8.13;;
75062;SDS011;63981;51.052;13.754;2022-12-18T18:39:14;13.57;;;7.00;;
75062;SDS011;63981;51.052;13.754;2022-12-18T18:41:40;13.38;;;6.25;;
75062;SDS011;63981;51.052;13.754;2022-12-18T18:44:08;18.27;;;9.10;;
75062;SDS011;63981;51.052;13.754;2022-12-18T18:46:37;12.48;;;6.38;;
75062;SDS011;63981;51.052;13.754;2022-12-18T18:49:04;16.65;;;7.68;;
75062;SDS011;63981;51.052;13.754;2022-12-18T18:51:32;17.02;;;7.70;;
75062;SDS011;63981;51.052;13.754;2022-12-18T18:54:01;12.98;;;6.68;;
75062;SDS011;63981;51.052;13.754;2022-12-18T18:56:27;17.15;;;7.30;;
75062;SDS011;63981;51.052;13.754;2022-12-18T18:58:54;18.00;;;8.32;;
75062;SDS011;63981;51.052;13.754;2022-12-18T19:01:24;18.60;;;6.97;;
75062;SDS011;63981;51.052;13.754;2022-12-18T19:03:52;18.00;;;9.68;;
75062;SDS011;63981;51.052;13.754;2022-12-18T19:06:23;19.40;;;8.35;;
75062;SDS011;63981;51.052;13.754;2022-12-18T19:08:52;15.50;;;8.82;;
75062;SDS011;63981;51.052;13.754;2022-12-18T19:11:20;19.13;;;10.05;;
75062;SDS011;63981;51.052;13.754;2022-12-18T19:14:16;13.95;;;5.88;;
75062;SDS011;63981;51.052;13.754;2022-12-18T19:16:42;20.63;;;9.95;;